createdAt,value
2017-09-09T03:32:34.469Z,76.30
2017-09-09T03:35:02.049Z,77.20
2017-09-09T03:37:29.849Z,77.20
2017-09-09T03:39:57.440Z,78.10
2017-09-09T03:42:25.021Z,77.50
2017-09-09T03:44:52.661Z,80.80
2017-09-09T03:47:21.023Z,77.40
2017-09-09T03:49:48.608Z,77.30
2017-09-09T03:52:16.221Z,77.80
2017-09-09T03:54:43.811Z,76.80
2017-09-09T03:57:11.406Z,79.40
2017-09-09T03:59:39.026Z,77.80
2017-09-09T04:02:06.613Z,78.10
2017-09-09T04:04:34.201Z,81.40
2017-09-09T04:07:02.777Z,80.50
2017-09-09T04:09:31.124Z,79.60
2017-09-09T04:11:58.714Z,79.60
2017-09-09T04:14:27.392Z,79.20
2017-09-09T04:16:55.742Z,80.00
2017-09-09T04:19:23.326Z,79.90
2017-09-09T04:21:51.701Z,77.70
2017-09-09T04:24:19.290Z,77.70
2017-09-09T04:26:47.133Z,79.60
2017-09-09T04:29:15.509Z,80.10
2017-09-09T04:31:43.867Z,78.00
2017-09-09T04:34:11.477Z,77.90
2017-09-09T04:36:39.065Z,78.00
2017-09-09T04:39:06.864Z,79.40
2017-09-09T04:41:35.214Z,79.80
2017-09-09T04:44:02.801Z,79.80
2017-09-09T04:46:31.390Z,82.00
2017-09-09T04:48:59.820Z,77.00
2017-09-09T04:51:27.400Z,77.10
2017-09-09T04:53:55.037Z,77.20
2017-09-09T04:56:22.621Z,77.70
2017-09-09T04:58:50.206Z,76.70
2017-09-09T05:01:18.606Z,77.50
2017-09-09T05:03:46.190Z,77.60
2017-09-09T05:06:13.777Z,78.30
2017-09-09T05:08:41.401Z,78.00
2017-09-09T05:11:08.990Z,78.50
2017-09-09T05:13:36.573Z,81.10
2017-09-09T05:16:04.965Z,81.00
2017-09-09T05:18:32.553Z,81.00
2017-09-09T05:21:00.141Z,82.30
2017-09-09T05:23:27.765Z,84.30
2017-09-09T05:25:55.354Z,84.40
2017-09-09T05:28:22.950Z,79.60
2017-09-09T05:30:51.365Z,77.80
2017-09-09T05:33:18.956Z,77.80
2017-09-09T05:35:46.536Z,78.10
2017-09-09T05:38:15.128Z,81.10
2017-09-09T05:40:43.502Z,83.30
2017-09-09T05:43:11.849Z,81.00
2017-09-09T05:45:39.641Z,80.90
2017-09-09T05:48:08.077Z,79.00
2017-09-09T05:50:35.841Z,78.80
2017-09-09T05:53:03.473Z,78.50
2017-09-09T05:55:31.059Z,79.60
2017-09-09T05:57:59.415Z,76.30
2017-09-09T06:00:27.045Z,76.30
2017-09-09T06:02:55.398Z,80.20
2017-09-09T06:05:22.973Z,80.10
2017-09-09T06:07:51.349Z,77.00
2017-09-09T06:10:19.697Z,79.40
2017-09-09T06:12:47.277Z,79.20
2017-09-09T06:15:15.670Z,78.00
2017-09-09T06:17:44.019Z,76.80
2017-09-09T06:20:11.606Z,76.80
2017-09-09T06:22:39.233Z,78.90
2017-09-09T06:25:06.821Z,78.20
2017-09-09T06:27:35.170Z,74.90
2017-09-09T06:30:02.768Z,74.90
2017-09-09T06:32:30.349Z,78.40
2017-09-09T06:34:58.180Z,76.50
2017-09-09T06:37:26.521Z,77.20
2017-09-09T06:39:54.102Z,77.10
2017-09-09T06:42:21.737Z,75.60
2017-09-09T06:44:49.326Z,77.10
2017-09-09T06:47:17.681Z,79.80
2017-09-09T06:49:45.302Z,79.80
2017-09-09T06:52:12.887Z,76.50
2017-09-09T06:54:40.469Z,78.20
2017-09-09T06:57:08.098Z,76.80
2017-09-09T06:59:35.678Z,78.30
2017-09-09T07:02:03.261Z,78.90
2017-09-09T07:04:31.629Z,79.50
2017-09-09T07:06:59.997Z,78.40
2017-09-09T07:09:27.629Z,78.20
2017-09-09T07:11:55.205Z,78.30
2017-09-09T07:14:22.793Z,77.00
2017-09-09T07:16:51.174Z,76.90
2017-09-09T07:19:19.522Z,77.70
2017-09-09T07:21:47.103Z,77.60
2017-09-09T07:24:15.497Z,77.30
2017-09-09T07:26:43.074Z,77.30
2017-09-09T07:29:10.653Z,76.90
2017-09-09T07:31:38.281Z,77.10
2017-09-09T07:34:05.861Z,76.40
2017-09-09T07:36:33.442Z,76.40
2017-09-09T07:39:01.241Z,77.00
2017-09-09T07:41:29.594Z,76.70
2017-09-09T07:43:57.202Z,76.60
2017-09-09T07:46:24.825Z,77.10
2017-09-09T07:48:53.174Z,76.80
2017-09-09T07:51:20.854Z,76.30
2017-09-09T07:53:48.478Z,76.40
2017-09-09T07:56:16.056Z,76.90
2017-09-09T07:58:43.639Z,76.30
2017-09-09T08:01:12.234Z,75.80
2017-09-09T08:03:40.585Z,77.20
2017-09-09T08:06:08.173Z,77.10
2017-09-09T08:08:36.556Z,78.40
2017-09-09T08:11:04.226Z,78.40
2017-09-09T08:13:31.814Z,77.50
2017-09-09T08:16:00.394Z,77.00
2017-09-09T08:18:27.977Z,76.90
2017-09-09T08:20:55.558Z,77.10
2017-09-09T08:23:23.941Z,76.60
2017-09-09T08:25:52.293Z,77.00
2017-09-09T08:28:19.874Z,77.00
2017-09-09T08:30:48.253Z,78.00
2017-09-09T08:33:16.604Z,77.80
2017-09-09T08:35:44.185Z,77.70
2017-09-09T08:38:12.574Z,78.10
2017-09-09T08:40:40.923Z,77.70
2017-09-09T08:43:08.514Z,77.60
2017-09-09T08:45:36.141Z,78.00
2017-09-09T08:48:03.735Z,77.70
2017-09-09T08:50:31.317Z,77.30
2017-09-09T08:52:58.941Z,78.90
2017-09-09T08:55:27.286Z,77.60
2017-09-09T08:57:54.872Z,77.50
2017-09-09T09:00:22.738Z,77.40
2017-09-09T09:02:51.114Z,76.40
2017-09-09T09:05:19.467Z,76.80
2017-09-09T09:07:47.840Z,76.10
2017-09-09T09:10:15.417Z,76.10
2017-09-09T09:12:43.878Z,75.50
2017-09-09T09:15:11.458Z,75.50
2017-09-09T09:17:39.844Z,75.00
2017-09-09T09:20:08.237Z,74.00
2017-09-09T09:22:35.882Z,74.00
2017-09-09T09:25:04.233Z,73.90
2017-09-09T09:27:31.869Z,73.90
2017-09-09T09:29:59.454Z,74.90
2017-09-09T09:32:27.035Z,72.60
2017-09-09T09:34:55.514Z,73.10
2017-09-09T09:37:23.894Z,73.10
2017-09-09T09:39:52.245Z,72.50
2017-09-09T09:42:19.853Z,72.40
2017-09-09T09:44:47.429Z,72.90
2017-09-09T09:47:15.018Z,72.40
2017-09-09T09:49:42.637Z,72.10
2017-09-09T09:52:10.237Z,72.80
2017-09-09T09:54:37.925Z,72.40
2017-09-09T09:57:06.301Z,71.70
2017-09-09T09:59:34.649Z,71.30
2017-09-09T10:02:02.339Z,71.10
2017-09-09T10:04:30.897Z,70.60
2017-09-09T10:06:58.581Z,70.50
2017-09-09T10:09:26.925Z,68.70
2017-09-09T10:11:54.565Z,68.60
2017-09-09T10:14:22.145Z,70.00
2017-09-09T10:16:49.725Z,69.20
2017-09-09T10:19:18.110Z,69.00
2017-09-09T10:21:46.453Z,66.60
2017-09-09T10:24:18.486Z,66.60
2017-09-09T10:26:46.101Z,66.10
2017-09-09T10:29:13.682Z,67.90
2017-09-09T10:31:41.261Z,66.30
2017-09-09T10:34:08.989Z,65.30
2017-09-09T10:36:37.382Z,66.10
2017-09-09T10:39:04.966Z,66.00
2017-09-09T10:41:32.586Z,66.70
2017-09-09T10:44:00.169Z,67.10
2017-09-09T10:46:27.750Z,66.60
2017-09-09T10:48:55.355Z,65.40
2017-09-09T10:51:22.988Z,65.90
2017-09-09T10:53:50.574Z,65.00
2017-09-09T10:56:18.154Z,66.30
2017-09-09T10:58:45.781Z,66.60
2017-09-09T11:01:13.370Z,67.10
2017-09-09T11:03:40.955Z,66.20
2017-09-09T11:06:08.590Z,67.80
2017-09-09T11:08:36.169Z,67.00
2017-09-09T11:11:03.749Z,66.70
2017-09-09T11:13:31.369Z,68.20
2017-09-09T11:15:58.945Z,68.70
2017-09-09T11:18:26.533Z,67.10
2017-09-09T11:20:55.157Z,66.90
2017-09-09T11:23:23.505Z,67.00
2017-09-09T11:25:51.087Z,66.90
2017-09-09T11:28:19.481Z,66.80
2017-09-09T11:30:47.130Z,66.70
2017-09-09T11:33:15.485Z,66.10
2017-09-09T11:35:43.269Z,66.10
2017-09-09T11:38:11.613Z,68.00
2017-09-09T11:40:39.202Z,68.00
2017-09-09T11:43:07.792Z,67.80
2017-09-09T11:45:36.149Z,68.50
2017-09-09T11:48:03.725Z,68.40
2017-09-09T11:50:31.581Z,67.80
2017-09-09T11:52:59.938Z,68.80
2017-09-09T11:55:27.517Z,68.80
2017-09-09T11:57:56.645Z,68.10
2017-09-09T12:00:24.225Z,68.60
2017-09-09T12:02:51.809Z,69.20
2017-09-09T12:05:19.434Z,69.40
2017-09-09T12:07:47.018Z,70.50
2017-09-09T12:10:14.606Z,71.00
2017-09-09T12:12:42.993Z,70.30
2017-09-09T12:15:11.341Z,71.20
2017-09-09T12:17:38.920Z,71.10
2017-09-09T12:20:07.311Z,68.90
2017-09-09T12:22:35.655Z,69.50
2017-09-09T12:25:03.240Z,69.30
2017-09-09T12:27:31.645Z,69.60
2017-09-09T12:29:59.231Z,69.50
2017-09-09T12:32:26.828Z,69.90
2017-09-09T12:34:55.309Z,71.10
2017-09-09T12:37:23.690Z,71.50
2017-09-09T12:39:52.097Z,71.50
2017-09-09T12:42:19.705Z,71.30
2017-09-09T12:44:48.101Z,71.00
2017-09-09T12:47:16.699Z,71.50
2017-09-09T12:49:44.350Z,71.40
2017-09-09T12:52:12.722Z,69.20
2017-09-09T12:54:41.205Z,70.40
2017-09-09T12:57:09.556Z,70.70
2017-09-09T12:59:37.141Z,70.70
2017-09-09T13:02:05.561Z,70.40
2017-09-09T13:04:33.185Z,70.40
2017-09-09T13:07:00.775Z,72.30
2017-09-09T13:09:28.502Z,72.30
2017-09-09T13:11:56.873Z,72.20
2017-09-09T13:14:25.253Z,73.20
2017-09-09T13:16:53.640Z,72.00
2017-09-09T13:19:21.234Z,72.00
2017-09-09T13:21:48.851Z,73.00
2017-09-09T13:24:17.481Z,73.10
2017-09-09T13:26:45.097Z,73.00
2017-09-09T13:29:12.794Z,72.40
2017-09-09T13:31:40.586Z,71.80
2017-09-09T13:34:08.285Z,72.40
2017-09-09T13:36:36.629Z,73.20
2017-09-09T13:39:04.245Z,73.30
2017-09-09T13:41:31.825Z,75.20
2017-09-09T13:43:59.407Z,75.20
2017-09-09T13:46:27.033Z,74.90
2017-09-09T13:48:54.613Z,75.60
2017-09-09T13:51:22.194Z,76.80
2017-09-09T13:53:49.969Z,75.60
2017-09-09T13:56:18.317Z,75.90
2017-09-09T13:58:45.901Z,75.80
2017-09-09T14:01:14.298Z,77.80
2017-09-09T14:03:41.885Z,77.80
2017-09-09T14:06:09.462Z,79.20
2017-09-09T14:08:37.085Z,82.00
2017-09-09T14:11:04.674Z,80.00
2017-09-09T14:13:32.249Z,78.50
2017-09-09T14:15:59.872Z,79.00
2017-09-09T14:18:27.449Z,79.50
2017-09-09T14:20:55.037Z,80.60
2017-09-09T14:23:22.658Z,81.10
2017-09-09T14:25:50.237Z,79.40
2017-09-09T14:28:17.813Z,78.90
2017-09-09T14:30:45.463Z,79.90
2017-09-09T14:33:13.037Z,79.70
2017-09-09T14:35:40.620Z,79.90
2017-09-09T14:38:08.245Z,79.80
2017-09-09T14:40:36.594Z,78.70
2017-09-09T14:43:04.183Z,78.10
2017-09-09T14:45:31.786Z,78.00
2017-09-09T14:47:59.371Z,78.30
2017-09-09T14:50:27.305Z,79.40
2017-09-09T14:52:54.937Z,80.30
2017-09-09T14:55:22.534Z,79.00
2017-09-09T14:57:50.178Z,76.80
2017-09-09T15:00:17.805Z,79.70
2017-09-09T15:02:45.412Z,78.70
2017-09-09T15:05:13.017Z,78.30
2017-09-09T15:07:40.593Z,79.40
2017-09-09T15:10:09.105Z,79.10
2017-09-09T15:12:36.694Z,79.10
2017-09-09T15:15:04.281Z,77.10
2017-09-09T15:17:31.919Z,78.90
2017-09-09T15:19:59.497Z,79.50
2017-09-09T15:22:27.085Z,77.20
2017-09-09T15:24:54.961Z,78.30
2017-09-09T15:27:22.544Z,78.90
2017-09-09T15:29:50.118Z,78.30
2017-09-09T15:32:17.742Z,78.70
2017-09-09T15:34:45.331Z,79.30
2017-09-09T15:37:12.929Z,79.40
2017-09-09T15:39:40.807Z,79.40
2017-09-09T15:42:09.225Z,79.70
2017-09-09T15:44:36.822Z,79.80
2017-09-09T15:47:04.452Z,79.90
2017-09-09T15:49:32.037Z,79.30
2017-09-09T15:51:59.623Z,78.10
2017-09-09T15:54:28.002Z,76.60
2017-09-09T15:56:55.591Z,76.60
2017-09-09T15:59:23.177Z,77.10
2017-09-09T16:01:50.974Z,77.30
2017-09-09T16:04:19.330Z,79.90
2017-09-09T16:06:46.919Z,79.80
2017-09-09T16:09:14.778Z,77.50
2017-09-09T16:11:43.134Z,77.80
2017-09-09T16:14:10.717Z,77.80
2017-09-09T16:16:38.369Z,79.30
2017-09-09T16:19:06.758Z,81.90
2017-09-09T16:21:34.370Z,81.90
2017-09-09T16:24:02.381Z,79.80
2017-09-09T16:26:30.742Z,77.70
2017-09-09T16:28:58.321Z,77.70
2017-09-09T16:31:26.717Z,77.10
2017-09-09T16:33:54.304Z,77.00
2017-09-09T16:36:21.901Z,79.00
2017-09-09T16:38:50.287Z,80.60
2017-09-09T16:41:18.638Z,79.60
2017-09-09T16:43:46.223Z,79.70
2017-09-09T16:46:14.605Z,78.80
2017-09-09T16:48:43.000Z,78.80
2017-09-09T16:51:10.637Z,79.00
2017-09-09T16:53:38.986Z,77.60
2017-09-09T16:56:06.573Z,77.50
2017-09-09T16:58:35.273Z,78.40
2017-09-09T17:01:02.858Z,78.30
2017-09-09T17:03:30.442Z,78.00
2017-09-09T17:05:58.073Z,78.50
2017-09-09T17:08:25.653Z,80.50
2017-09-09T17:10:53.263Z,78.70
2017-09-09T17:13:21.221Z,78.60
2017-09-09T17:15:49.580Z,77.30
2017-09-09T17:18:17.170Z,77.20
2017-09-09T17:20:45.125Z,77.50
2017-09-09T17:23:13.477Z,77.60
2017-09-09T17:25:41.058Z,78.30
2017-09-09T17:28:08.682Z,77.70
2017-09-09T17:30:36.264Z,79.30
2017-09-09T17:33:04.620Z,77.10
2017-09-09T17:35:32.262Z,77.20
2017-09-09T17:37:59.858Z,77.60
2017-09-09T17:40:27.441Z,77.90
2017-09-09T17:42:55.846Z,79.50
2017-09-09T17:45:23.429Z,79.40
2017-09-09T17:47:51.015Z,80.00
2017-09-09T17:50:18.645Z,80.90
2017-09-09T17:52:46.226Z,80.90
2017-09-09T17:55:13.813Z,79.80
2017-09-09T17:57:42.205Z,81.00
2017-09-09T18:00:09.794Z,81.10
2017-09-09T18:02:37.374Z,81.80
2017-09-09T18:05:05.174Z,81.90
2017-09-09T18:07:33.586Z,83.10
2017-09-09T18:10:01.179Z,83.10
2017-09-09T18:12:28.807Z,81.70
2017-09-09T18:14:56.406Z,83.20
2017-09-09T18:17:23.989Z,82.30
2017-09-09T18:19:52.557Z,80.70
2017-09-09T18:22:20.902Z,83.00
2017-09-09T18:24:48.490Z,82.90
2017-09-09T18:27:17.077Z,84.20
2017-09-09T18:29:45.434Z,84.60
2017-09-09T18:32:13.022Z,84.70
2017-09-09T18:34:40.651Z,85.60
2017-09-09T18:37:08.233Z,84.40
2017-09-09T18:39:36.582Z,83.40
2017-09-09T18:42:04.301Z,83.40
2017-09-09T18:44:31.887Z,83.20
2017-09-09T18:47:00.238Z,84.60
2017-09-09T18:49:27.958Z,84.50
2017-09-09T18:51:56.305Z,85.30
2017-09-09T18:54:23.895Z,85.30
2017-09-09T18:56:52.490Z,85.60
2017-09-09T18:59:20.839Z,84.00
2017-09-09T19:01:48.422Z,84.00
2017-09-09T19:04:16.798Z,82.90
2017-09-09T19:06:45.170Z,82.60
2017-09-09T19:09:13.523Z,83.80
2017-09-09T19:11:41.150Z,83.80
2017-09-09T19:14:08.725Z,82.20
2017-09-09T19:16:36.305Z,82.50
2017-09-09T19:19:04.044Z,81.90
2017-09-09T19:21:31.627Z,82.40
2017-09-09T19:23:59.286Z,83.10
2017-09-09T19:26:26.875Z,81.60
2017-09-09T19:28:54.466Z,81.60
2017-09-09T19:31:22.097Z,81.70
2017-09-09T19:33:49.685Z,81.40
2017-09-09T19:36:17.267Z,82.50
2017-09-09T19:38:45.178Z,82.10
2017-09-09T19:41:12.768Z,81.60
2017-09-09T19:43:40.377Z,82.30
2017-09-09T19:46:08.178Z,81.70
2017-09-09T19:48:35.759Z,81.10
2017-09-09T19:51:03.341Z,82.50
2017-09-09T19:53:30.970Z,82.10
2017-09-09T19:55:58.552Z,81.60
2017-09-09T19:58:26.133Z,81.00
2017-09-09T20:00:53.778Z,83.00
2017-09-09T20:03:21.366Z,81.70
2017-09-09T20:05:49.718Z,80.70
2017-09-09T20:08:17.351Z,80.70
2017-09-09T20:10:44.936Z,81.30
2017-09-09T20:13:12.525Z,81.30
2017-09-09T20:15:40.928Z,80.80
2017-09-09T20:18:08.509Z,80.80
2017-09-09T20:20:36.098Z,80.80
2017-09-09T20:23:03.721Z,80.60
2017-09-09T20:25:31.313Z,80.70
2017-09-09T20:27:58.901Z,83.60
2017-09-09T20:30:27.474Z,82.60
2017-09-09T20:32:55.822Z,82.30
2017-09-09T20:35:23.414Z,82.30
2017-09-09T20:37:51.993Z,81.10
2017-09-09T20:40:20.342Z,82.90
2017-09-09T20:42:47.924Z,82.90
2017-09-09T20:45:16.353Z,80.90
2017-09-09T20:47:43.957Z,80.80
2017-09-09T20:50:12.310Z,82.10
2017-09-09T20:52:39.953Z,82.20
2017-09-09T20:55:07.545Z,81.50
2017-09-09T20:57:35.133Z,81.30
2017-09-09T21:00:02.986Z,80.70
2017-09-09T21:02:30.595Z,80.60
2017-09-09T21:04:58.178Z,81.00
2017-09-09T21:07:25.792Z,81.70
2017-09-09T21:09:53.378Z,80.80
2017-09-09T21:12:21.293Z,82.10
2017-09-09T21:14:48.877Z,82.20
2017-09-09T21:17:16.465Z,82.90
2017-09-09T21:19:44.265Z,80.80
2017-09-09T21:22:12.613Z,81.80
2017-09-09T21:24:40.201Z,81.60
2017-09-09T21:27:08.786Z,82.80
2017-09-09T21:29:37.170Z,81.20
2017-09-09T21:32:05.541Z,80.50
2017-09-09T21:34:33.953Z,80.70
2017-09-09T21:37:01.569Z,80.60
2017-09-09T21:39:29.921Z,81.00
2017-09-09T21:41:57.541Z,81.00
2017-09-09T21:44:25.122Z,81.10
2017-09-09T21:46:52.706Z,83.30
2017-09-09T21:49:20.338Z,82.40
2017-09-09T21:51:47.917Z,82.80
2017-09-09T21:54:15.501Z,82.40
2017-09-09T21:56:44.084Z,86.80
2017-09-09T21:59:12.425Z,85.60
2017-09-09T22:01:40.006Z,85.50
2017-09-09T22:04:07.629Z,84.50
2017-09-09T22:06:35.217Z,82.70
2017-09-09T22:09:02.802Z,83.60
2017-09-09T22:11:31.185Z,83.30
2017-09-09T22:13:59.524Z,82.80
2017-09-09T22:16:27.109Z,82.80
2017-09-09T22:18:54.980Z,84.20
2017-09-09T22:21:22.650Z,84.30
2017-09-09T22:23:50.995Z,83.90
2017-09-09T22:26:18.624Z,83.80
2017-09-09T22:28:46.205Z,86.20
